Time;durP1;ratioP1;P1;durP2;ratioP2;P2;SDS_P1;SDS_P2;PMS_P1;PMS_P2;Temp;Humidity;BMP_temperature;BMP_pressure;BME280_temperature;BME280_humidity;BME280_pressure;Samples;Min_cycle;Max_cycle;Signal;HPM_P1;HPM_P2
2021/05/30 00:02:01;;;;;;;11.07;7.78;;;11.50;99.90;;;;;;4971428;28;20053;-84
2021/05/30 00:04:26;;;;;;;10.02;7.32;;;11.40;99.90;;;;;;4960994;28;20034;-87
2021/05/30 00:06:52;;;;;;;13.05;8.55;;;11.30;99.90;;;;;;4993462;28;20041;-87
2021/05/30 00:09:18;;;;;;;10.43;7.78;;;11.30;99.90;;;;;;4982458;28;20065;-89
2021/05/30 00:11:43;;;;;;;9.63;7.97;;;11.20;99.90;;;;;;4979366;28;20057;-86
2021/05/30 00:14:09;;;;;;;11.90;8.27;;;11.20;99.90;;;;;;4962199;28;20038;-84
2021/05/30 00:16:35;;;;;;;11.30;8.30;;;11.10;99.90;;;;;;4973347;28;20031;-86
2021/05/30 00:19:03;;;;;;;11.70;9.07;;;11.00;99.90;;;;;;4990844;28;20031;-83
2021/05/30 00:21:29;;;;;;;12.05;8.57;;;11.00;99.90;;;;;;4990198;28;20637;-86
2021/05/30 00:23:58;;;;;;;11.32;7.95;;;10.90;99.90;;;;;;4987972;28;20066;-84
2021/05/30 00:26:23;;;;;;;9.57;7.40;;;10.90;99.90;;;;;;4991029;28;20137;-86
2021/05/30 00:28:49;;;;;;;10.82;6.80;;;10.80;99.90;;;;;;4993154;28;20026;-83
2021/05/30 00:31:14;;;;;;;8.55;6.45;;;10.80;99.90;;;;;;4972278;28;20077;-85
2021/05/30 00:33:40;;;;;;;8.55;6.57;;;10.80;99.90;;;;;;4970269;28;20475;-88
2021/05/30 00:36:07;;;;;;;11.43;7.00;;;10.80;99.90;;;;;;4970306;28;20038;-87
2021/05/30 00:38:32;;;;;;;11.15;7.68;;;10.70;99.90;;;;;;4970586;28;20038;-83
2021/05/30 00:40:58;;;;;;;8.93;6.55;;;10.70;99.90;;;;;;4988514;28;20113;-87
2021/05/30 00:43:24;;;;;;;9.25;7.03;;;10.70;99.90;;;;;;4970627;28;20081;-87
2021/05/30 00:45:50;;;;;;;10.90;7.57;;;10.60;99.90;;;;;;4970363;28;20118;-88
2021/05/30 00:48:16;;;;;;;11.32;8.52;;;10.60;99.90;;;;;;4995691;28;20046;-88
2021/05/30 00:50:42;;;;;;;9.88;7.50;;;10.60;99.90;;;;;;4976594;28;20039;-86
2021/05/30 00:53:09;;;;;;;10.55;8.23;;;10.50;99.90;;;;;;4976551;28;20146;-87
2021/05/30 00:55:35;;;;;;;10.15;8.07;;;10.50;99.90;;;;;;4997208;28;20369;-87
2021/05/30 00:58:01;;;;;;;12.25;8.55;;;10.50;99.90;;;;;;4997616;28;20064;-85
2021/05/30 01:00:27;;;;;;;12.18;8.77;;;10.40;99.90;;;;;;4979955;28;20061;-86
2021/05/30 01:02:52;;;;;;;12.45;9.10;;;10.40;99.90;;;;;;4980381;28;20377;-87
2021/05/30 01:05:18;;;;;;;10.18;8.32;;;10.40;99.90;;;;;;4996465;28;20633;-86
2021/05/30 01:07:47;;;;;;;9.73;7.85;;;10.30;99.90;;;;;;4980112;28;20037;-85
2021/05/30 01:10:20;;;;;;;8.98;6.95;;;10.30;99.90;;;;;;4979578;28;20494;-87
2021/05/30 01:12:48;;;;;;;10.00;7.82;;;10.30;99.90;;;;;;4979338;28;20125;-87
2021/05/30 01:15:18;;;;;;;9.95;7.63;;;10.30;99.90;;;;;;4978101;28;20026;-87
2021/05/30 01:17:46;;;;;;;11.57;8.60;;;10.20;99.90;;;;;;4995688;28;20050;-87
2021/05/30 01:20:16;;;;;;;11.00;8.18;;;10.20;99.90;;;;;;4978338;28;20057;-87
2021/05/30 01:22:44;;;;;;;13.02;8.70;;;10.20;99.90;;;;;;4977919;28;20038;-86
2021/05/30 01:25:12;;;;;;;10.95;8.45;;;10.10;99.90;;;;;;4977686;28;20534;-89
2021/05/30 01:27:39;;;;;;;10.18;7.88;;;10.10;99.90;;;;;;4979042;28;20038;-88
2021/05/30 01:30:06;;;;;;;11.50;8.20;;;10.10;99.90;;;;;;4979535;28;20037;-86
2021/05/30 01:32:31;;;;;;;10.27;7.88;;;10.10;99.90;;;;;;4997071;28;20058;-87
2021/05/30 01:34:58;;;;;;;11.48;8.40;;;10.00;99.90;;;;;;4980264;28;20478;-87
2021/05/30 01:37:23;;;;;;;11.07;8.73;;;10.00;99.90;;;;;;4980342;28;20034;-88
2021/05/30 01:39:49;;;;;;;13.50;8.85;;;10.00;99.90;;;;;;4980353;28;20531;-88
2021/05/30 01:42:15;;;;;;;11.50;8.15;;;9.90;99.90;;;;;;4980195;28;20038;-87
2021/05/30 01:44:40;;;;;;;12.85;8.93;;;9.90;99.90;;;;;;4999945;28;20030;-88
2021/05/30 01:47:06;;;;;;;14.45;9.48;;;9.90;99.90;;;;;;4981070;28;20448;-87
2021/05/30 01:49:31;;;;;;;10.52;8.30;;;9.90;99.90;;;;;;4997162;28;20105;-87
2021/05/30 01:51:57;;;;;;;12.75;8.73;;;9.80;99.90;;;;;;4980022;28;20546;-88
2021/05/30 01:54:26;;;;;;;12.73;9.57;;;9.80;99.90;;;;;;4997276;28;20034;-86
2021/05/30 01:56:57;;;;;;;12.38;9.30;;;9.70;99.90;;;;;;4979629;28;20133;-87
2021/05/30 01:59:28;;;;;;;12.93;9.75;;;9.70;99.90;;;;;;4997179;28;20052;-88
2021/05/30 02:01:57;;;;;;;12.20;9.10;;;9.70;99.90;;;;;;4997154;28;20052;-87
2021/05/30 02:04:49;;;;;;;13.65;9.23;;;9.70;99.90;;;;;;4996988;28;20026;-88
2021/05/30 02:07:15;;;;;;;12.52;9.25;;;9.70;99.90;;;;;;4977576;28;20070;-88
2021/05/30 02:09:43;;;;;;;14.50;9.65;;;9.70;99.90;;;;;;4979153;28;20037;-87
2021/05/30 02:12:09;;;;;;;9.48;7.65;;;9.70;99.90;;;;;;4996657;28;20105;-86
2021/05/30 02:14:35;;;;;;;14.25;10.23;;;9.60;99.90;;;;;;4960044;28;20034;-88
2021/05/30 02:17:01;;;;;;;11.18;8.68;;;9.60;99.90;;;;;;4967188;28;20396;-88
2021/05/30 02:19:27;;;;;;;11.52;8.48;;;9.60;99.90;;;;;;4979354;28;20129;-89
2021/05/30 02:21:53;;;;;;;14.40;10.43;;;9.60;99.90;;;;;;4996472;28;20101;-87
2021/05/30 02:24:22;;;;;;;11.45;9.60;;;9.60;99.90;;;;;;4979188;28;20069;-86
2021/05/30 02:26:49;;;;;;;10.48;8.32;;;9.60;99.90;;;;;;4979028;28;20026;-85
2021/05/30 02:29:33;;;;;;;12.95;9.43;;;9.50;99.90;;;;;;4996194;28;20477;-86
2021/05/30 02:31:58;;;;;;;10.07;7.80;;;9.60;99.90;;;;;;4978675;28;20049;-87
2021/05/30 02:34:24;;;;;;;12.00;9.38;;;9.50;99.90;;;;;;4978807;28;20030;-88
2021/05/30 02:36:49;;;;;;;12.55;9.68;;;9.50;99.90;;;;;;4996593;28;20029;-87
2021/05/30 02:39:15;;;;;;;14.82;10.13;;;9.50;99.90;;;;;;4996278;28;20035;-85
2021/05/30 02:41:41;;;;;;;12.88;9.45;;;9.40;99.90;;;;;;4978415;28;20097;-87
2021/05/30 02:44:07;;;;;;;12.63;9.45;;;9.40;99.90;;;;;;4978700;28;20038;-87
2021/05/30 02:46:32;;;;;;;14.73;9.45;;;9.40;99.90;;;;;;4978251;28;20117;-88
2021/05/30 02:48:58;;;;;;;13.43;10.02;;;9.40;99.90;;;;;;4995676;28;20060;-87
2021/05/30 02:51:23;;;;;;;12.00;9.38;;;9.30;99.90;;;;;;4978749;28;20073;-89
2021/05/30 02:53:49;;;;;;;13.13;9.75;;;9.30;99.90;;;;;;4996376;28;20039;-87
2021/05/30 02:56:15;;;;;;;12.27;8.90;;;9.30;99.90;;;;;;4979314;28;20480;-87
2021/05/30 02:58:40;;;;;;;13.93;9.68;;;9.20;99.90;;;;;;4998946;28;20026;-85
2021/05/30 03:01:06;;;;;;;12.07;8.27;;;9.20;99.90;;;;;;4994294;28;20053;-85
2021/05/30 03:03:31;;;;;;;12.05;8.80;;;9.20;99.90;;;;;;5010917;28;20034;-84
2021/05/30 03:05:58;;;;;;;10.93;8.65;;;9.20;99.90;;;;;;5010527;28;20057;-83
2021/05/30 03:08:23;;;;;;;12.52;8.63;;;9.20;99.90;;;;;;4994267;28;20050;-85
2021/05/30 03:10:49;;;;;;;12.38;8.25;;;9.20;99.90;;;;;;5011066;28;20476;-82
2021/05/30 03:13:15;;;;;;;11.93;8.45;;;9.20;99.90;;;;;;5016279;28;20046;-85
2021/05/30 03:15:41;;;;;;;10.00;7.80;;;9.10;99.90;;;;;;5018094;28;20115;-85
2021/05/30 03:18:07;;;;;;;12.10;8.40;;;9.20;99.90;;;;;;5002509;28;20039;-85
2021/05/30 03:20:33;;;;;;;11.35;7.65;;;9.10;99.90;;;;;;5002011;28;20018;-85
2021/05/30 03:22:59;;;;;;;11.77;8.57;;;9.10;99.90;;;;;;4994542;28;20053;-87
2021/05/30 03:25:24;;;;;;;11.23;7.93;;;9.10;99.90;;;;;;4999742;28;20085;-86
2021/05/30 03:27:50;;;;;;;10.23;7.78;;;9.10;99.90;;;;;;4979673;28;20129;-87
2021/05/30 03:30:16;;;;;;;10.63;8.43;;;9.10;99.90;;;;;;4996575;28;20037;-85
2021/05/30 03:32:42;;;;;;;12.60;8.48;;;9.10;99.90;;;;;;4999249;28;20161;-86
2021/05/30 03:35:09;;;;;;;11.50;8.80;;;9.10;99.90;;;;;;5017082;28;20030;-86
2021/05/30 03:37:35;;;;;;;12.45;9.05;;;9.10;99.90;;;;;;4989693;28;20041;-86
2021/05/30 03:40:06;;;;;;;13.77;8.70;;;9.00;99.90;;;;;;5014604;28;20026;-88
2021/05/30 03:42:36;;;;;;;12.25;8.88;;;9.00;99.90;;;;;;4981660;28;20084;-88
2021/05/30 03:45:02;;;;;;;10.25;7.72;;;9.00;99.90;;;;;;4990503;28;20049;-88
2021/05/30 03:47:28;;;;;;;11.65;8.63;;;9.00;99.90;;;;;;4988950;28;20118;-85
2021/05/30 03:49:53;;;;;;;11.55;8.02;;;9.00;99.90;;;;;;5000737;28;20038;-88
2021/05/30 03:52:19;;;;;;;11.45;8.57;;;9.10;99.90;;;;;;4981954;28;20495;-89
2021/05/30 03:54:46;;;;;;;10.00;7.30;;;9.00;99.90;;;;;;4979463;28;20092;-89
2021/05/30 03:57:11;;;;;;;9.55;7.57;;;9.10;99.90;;;;;;4979506;28;20412;-90
2021/05/30 03:59:37;;;;;;;10.32;7.70;;;9.10;99.90;;;;;;4978938;28;20037;-89
2021/05/30 04:02:05;;;;;;;11.85;8.40;;;9.10;99.90;;;;;;4982771;28;20307;-88
2021/05/30 04:04:31;;;;;;;10.57;7.53;;;9.10;99.90;;;;;;5000560;28;20108;-89
2021/05/30 04:06:57;;;;;;;11.38;7.90;;;9.10;99.90;;;;;;4998027;28;20034;-90
2021/05/30 04:09:22;;;;;;;12.35;8.20;;;9.10;99.90;;;;;;5021141;28;20033;-87
2021/05/30 04:11:48;;;;;;;12.18;9.00;;;9.10;99.90;;;;;;4999007;28;20042;-88
2021/05/30 04:14:14;;;;;;;11.20;7.55;;;9.10;99.90;;;;;;4997325;28;20049;-89
2021/05/30 04:16:40;;;;;;;14.20;8.85;;;9.20;99.90;;;;;;4981167;28;20042;-87
2021/05/30 04:19:05;;;;;;;11.27;8.32;;;9.20;99.90;;;;;;4999934;28;20077;-89
2021/05/30 04:21:31;;;;;;;10.95;7.78;;;9.20;99.90;;;;;;4989972;28;20042;-89
2021/05/30 04:23:57;;;;;;;11.32;8.63;;;9.20;99.90;;;;;;5014384;28;20081;-89
2021/05/30 04:26:23;;;;;;;10.10;7.82;;;9.20;99.90;;;;;;4995350;28;20477;-88
2021/05/30 04:28:48;;;;;;;12.38;9.25;;;9.30;99.90;;;;;;5015584;28;20083;-89
2021/05/30 04:31:14;;;;;;;16.65;10.40;;;9.30;99.90;;;;;;4997758;28;20123;-89
2021/05/30 04:33:39;;;;;;;15.82;10.45;;;9.40;99.90;;;;;;5000251;28;20046;-88
2021/05/30 04:36:05;;;;;;;12.65;9.38;;;9.40;99.90;;;;;;4999142;28;20077;-90
2021/05/30 04:38:30;;;;;;;15.02;10.48;;;9.40;99.90;;;;;;4995232;28;20105;-88
2021/05/30 04:41:00;;;;;;;12.90;8.50;;;9.50;99.90;;;;;;4991295;28;20049;-89
2021/05/30 04:43:25;;;;;;;14.02;8.50;;;9.50;99.90;;;;;;4996804;28;20038;-88
2021/05/30 04:45:51;;;;;;;12.85;9.25;;;9.60;99.90;;;;;;4990480;28;20090;-88
2021/05/30 04:48:16;;;;;;;16.02;10.52;;;9.60;99.90;;;;;;5001740;28;20042;-89
2021/05/30 04:51:04;;;;;;;12.60;9.63;;;9.60;99.90;;;;;;4981462;28;20041;-88
2021/05/30 04:53:28;;;;;;;12.82;9.13;;;9.70;99.90;;;;;;4997240;28;20038;-90
2021/05/30 04:55:53;;;;;;;12.77;8.73;;;9.70;99.90;;;;;;4992909;28;20034;-89
2021/05/30 04:58:19;;;;;;;12.40;9.00;;;9.80;99.90;;;;;;4999733;28;20109;-89
2021/05/30 05:00:44;;;;;;;11.52;8.82;;;9.80;99.90;;;;;;4996088;28;20034;-85
2021/05/30 05:03:10;;;;;;;14.40;10.35;;;9.80;99.90;;;;;;4989468;28;20047;-89
2021/05/30 05:05:35;;;;;;;13.02;9.80;;;9.90;99.90;;;;;;5017425;28;20042;-88
2021/05/30 05:08:01;;;;;;;15.75;10.52;;;9.90;99.90;;;;;;5018180;28;20034;-86
2021/05/30 05:10:26;;;;;;;11.80;8.68;;;10.00;99.90;;;;;;5001224;28;20062;-90
2021/05/30 05:12:52;;;;;;;13.35;10.02;;;10.00;99.90;;;;;;4998965;28;20038;-86
2021/05/30 05:15:18;;;;;;;14.38;10.77;;;10.20;99.90;;;;;;4987388;28;20038;-88
2021/05/30 05:17:43;;;;;;;15.25;10.68;;;10.10;99.90;;;;;;4990781;28;20109;-87
2021/05/30 05:20:09;;;;;;;14.90;10.40;;;10.20;99.90;;;;;;4994970;28;20038;-89
2021/05/30 05:22:35;;;;;;;12.70;9.75;;;10.30;99.90;;;;;;4997437;28;20082;-89
2021/05/30 05:25:02;;;;;;;12.30;9.10;;;10.30;99.90;;;;;;5002427;28;20411;-89
2021/05/30 05:27:28;;;;;;;11.73;8.77;;;10.30;99.90;;;;;;4991268;28;20034;-87
2021/05/30 05:29:53;;;;;;;11.57;8.32;;;10.40;99.90;;;;;;4983624;28;20421;-86
2021/05/30 05:32:19;;;;;;;14.98;10.48;;;10.50;99.90;;;;;;4996565;28;20041;-85
2021/05/30 05:34:45;;;;;;;14.65;10.73;;;10.50;99.90;;;;;;5003269;28;20050;-85
2021/05/30 05:37:10;;;;;;;11.60;8.38;;;10.60;99.90;;;;;;5011327;28;20035;-89
2021/05/30 05:39:36;;;;;;;13.25;9.07;;;10.70;99.90;;;;;;5010422;28;20026;-89
2021/05/30 05:42:01;;;;;;;11.95;9.23;;;10.80;99.90;;;;;;4992247;28;20459;-86
2021/05/30 05:44:27;;;;;;;12.10;9.82;;;10.80;99.90;;;;;;5002399;28;20066;-87
2021/05/30 05:46:53;;;;;;;12.45;9.82;;;10.90;99.90;;;;;;4993138;28;20090;-85
2021/05/30 05:49:18;;;;;;;15.77;9.65;;;10.90;99.90;;;;;;5015365;28;20031;-86
2021/05/30 05:51:45;;;;;;;13.70;9.60;;;11.00;99.90;;;;;;5013080;28;20042;-89
2021/05/30 05:54:10;;;;;;;12.60;8.68;;;11.10;99.90;;;;;;5002328;28;20038;-89
2021/05/30 05:56:36;;;;;;;12.82;9.05;;;11.20;99.90;;;;;;5000139;28;20080;-89
2021/05/30 05:59:02;;;;;;;11.10;8.25;;;11.30;99.90;;;;;;5001455;28;20038;-90
2021/05/30 06:01:27;;;;;;;11.15;7.85;;;11.30;99.90;;;;;;4995266;28;20030;-87
2021/05/30 06:03:53;;;;;;;12.57;9.45;;;11.40;99.90;;;;;;5008997;28;20399;-89
2021/05/30 06:06:19;;;;;;;11.98;9.35;;;11.40;99.90;;;;;;4983016;28;20081;-89
2021/05/30 06:08:45;;;;;;;12.55;8.75;;;11.60;99.90;;;;;;5002865;28;20092;-87
2021/05/30 06:11:10;;;;;;;13.10;9.35;;;11.60;99.90;;;;;;4992542;28;20439;-90
2021/05/30 06:13:36;;;;;;;15.38;8.90;;;11.70;99.90;;;;;;4996784;28;20069;-90
2021/05/30 06:16:05;;;;;;;11.38;9.30;;;11.70;99.90;;;;;;5012233;28;20030;-90
2021/05/30 06:18:31;;;;;;;12.20;9.45;;;11.80;99.90;;;;;;5004678;28;20033;-89
2021/05/30 06:20:57;;;;;;;12.70;9.45;;;11.80;99.90;;;;;;4995205;28;20113;-89
2021/05/30 06:23:22;;;;;;;11.57;9.20;;;11.80;99.90;;;;;;4995715;28;20077;-91
2021/05/30 06:25:48;;;;;;;12.10;9.57;;;11.90;99.90;;;;;;5002324;28;20112;-89
2021/05/30 06:28:14;;;;;;;14.65;11.43;;;11.90;99.90;;;;;;4983589;28;20117;-90
2021/05/30 06:30:41;;;;;;;14.95;11.77;;;12.00;99.90;;;;;;5016168;28;20117;-90
2021/05/30 06:33:08;;;;;;;13.25;10.48;;;12.00;99.90;;;;;;4999373;28;20034;-91
2021/05/30 06:35:39;;;;;;;15.75;11.25;;;12.10;99.90;;;;;;4999297;28;20033;-91
2021/05/30 06:38:13;;;;;;;14.20;11.20;;;12.20;99.90;;;;;;5000829;28;20030;-92
2021/05/30 06:40:39;;;;;;;16.00;12.10;;;12.10;99.90;;;;;;4964579;28;20030;-91
2021/05/30 06:43:05;;;;;;;13.82;9.75;;;12.20;99.90;;;;;;4979205;28;20045;-90
2021/05/30 06:45:31;;;;;;;11.82;8.88;;;12.30;99.90;;;;;;5007701;28;20049;-92
2021/05/30 06:47:59;;;;;;;12.80;9.65;;;12.30;99.90;;;;;;4982797;28;20035;-85
2021/05/30 06:50:24;;;;;;;12.63;9.45;;;12.40;99.90;;;;;;4995541;28;20089;-87
2021/05/30 06:52:50;;;;;;;12.68;10.02;;;12.40;99.90;;;;;;4996059;28;20648;-86
2021/05/30 06:55:19;;;;;;;13.70;10.85;;;12.40;99.90;;;;;;4995679;28;20026;-86
2021/05/30 06:57:45;;;;;;;16.15;11.25;;;12.50;99.90;;;;;;4983506;28;20399;-88
2021/05/30 07:00:11;;;;;;;13.43;11.02;;;12.50;99.90;;;;;;5009717;28;20057;-87
2021/05/30 07:02:37;;;;;;;16.00;11.38;;;12.60;99.90;;;;;;4976060;28;20389;-86
2021/05/30 07:05:03;;;;;;;16.33;11.43;;;12.60;99.90;;;;;;4976302;28;20034;-88
2021/05/30 07:07:28;;;;;;;16.77;12.77;;;12.70;99.90;;;;;;4978218;28;20101;-86
2021/05/30 07:09:54;;;;;;;15.48;11.38;;;12.70;99.90;;;;;;5006524;28;20439;-90
2021/05/30 07:12:19;;;;;;;15.60;10.93;;;12.70;99.90;;;;;;4995913;28;20045;-90
2021/05/30 07:14:46;;;;;;;15.55;11.93;;;12.70;99.90;;;;;;4978967;28;20053;-88
2021/05/30 07:17:13;;;;;;;18.33;13.38;;;12.70;99.90;;;;;;5011902;28;20567;-88
2021/05/30 07:19:38;;;;;;;21.13;14.57;;;12.80;99.90;;;;;;4994003;28;20033;-86
2021/05/30 07:22:04;;;;;;;17.67;13.02;;;12.80;99.90;;;;;;4994923;28;20494;-89
2021/05/30 07:24:30;;;;;;;15.10;11.13;;;12.90;99.90;;;;;;4994055;28;20052;-88
2021/05/30 07:26:55;;;;;;;15.45;12.13;;;13.00;99.90;;;;;;4988988;28;20045;-87
2021/05/30 07:29:21;;;;;;;14.27;11.25;;;13.00;99.90;;;;;;4992007;28;20376;-86
2021/05/30 07:31:48;;;;;;;15.55;11.80;;;13.10;99.90;;;;;;4977109;28;20027;-87
2021/05/30 07:34:14;;;;;;;13.77;11.57;;;13.10;99.90;;;;;;4992359;28;20824;-87
2021/05/30 07:36:39;;;;;;;14.15;10.93;;;13.30;99.90;;;;;;4991842;28;20122;-85
2021/05/30 07:39:05;;;;;;;13.73;10.63;;;13.30;99.90;;;;;;4974798;28;20124;-85
2021/05/30 07:41:32;;;;;;;13.20;10.40;;;13.30;99.90;;;;;;4976282;28;20022;-86
2021/05/30 07:43:58;;;;;;;15.10;11.88;;;13.50;99.90;;;;;;4985964;28;20038;-89
2021/05/30 07:46:25;;;;;;;13.25;10.07;;;13.50;99.90;;;;;;4994868;28;20488;-89
2021/05/30 07:48:51;;;;;;;14.32;10.77;;;13.60;99.90;;;;;;5011098;28;20038;-92
2021/05/30 07:51:17;;;;;;;13.55;10.07;;;13.70;99.90;;;;;;4988421;28;20121;-90
2021/05/30 07:53:43;;;;;;;11.93;9.00;;;13.80;99.90;;;;;;4993058;28;20178;-90
2021/05/30 07:56:08;;;;;;;12.05;8.90;;;13.90;99.90;;;;;;4988968;28;20039;-88
2021/05/30 07:58:35;;;;;;;11.35;8.27;;;13.90;99.90;;;;;;4977966;28;20030;-84
2021/05/30 08:01:01;;;;;;;10.35;8.63;;;14.10;99.90;;;;;;4988370;28;20064;-89
2021/05/30 08:03:26;;;;;;;10.18;8.10;;;14.10;99.90;;;;;;4991440;28;20503;-85
2021/05/30 08:05:52;;;;;;;10.25;8.63;;;14.20;99.90;;;;;;4996547;28;20054;-85
2021/05/30 08:08:18;;;;;;;11.10;8.40;;;14.20;99.90;;;;;;4987219;28;20078;-85
2021/05/30 08:10:44;;;;;;;9.73;8.18;;;14.30;99.90;;;;;;4968765;28;20087;-85
2021/05/30 08:13:10;;;;;;;11.70;9.20;;;14.40;99.90;;;;;;4986373;28;20563;-84
2021/05/30 08:15:35;;;;;;;15.13;11.60;;;14.50;99.90;;;;;;4968885;28;20031;-85
2021/05/30 08:18:01;;;;;;;13.50;10.27;;;14.70;99.90;;;;;;4979570;28;20402;-88
2021/05/30 08:20:29;;;;;;;11.60;9.07;;;14.80;99.90;;;;;;4989998;28;20038;-88
2021/05/30 08:22:55;;;;;;;11.50;8.43;;;14.90;99.90;;;;;;4975320;28;20133;-92
2021/05/30 08:25:21;;;;;;;12.77;8.10;;;15.10;99.90;;;;;;4995643;28;20122;-90
2021/05/30 08:27:48;;;;;;;12.05;9.70;;;15.10;99.90;;;;;;4995286;28;20547;-86
2021/05/30 08:30:15;;;;;;;13.35;8.93;;;15.20;99.90;;;;;;4979179;28;20057;-90
2021/05/30 08:32:41;;;;;;;10.75;8.57;;;15.30;99.90;;;;;;4994612;28;20046;-87
2021/05/30 08:35:08;;;;;;;11.32;8.80;;;15.40;99.90;;;;;;4993418;28;20026;-83
2021/05/30 08:37:34;;;;;;;12.20;9.65;;;15.50;99.90;;;;;;4980892;28;20084;-83
2021/05/30 08:40:00;;;;;;;15.85;12.00;;;15.60;99.90;;;;;;4987077;28;20391;-84
2021/05/30 08:42:25;;;;;;;12.48;9.25;;;15.70;99.90;;;;;;4975232;28;20050;-83
2021/05/30 08:44:52;;;;;;;11.02;8.95;;;15.70;99.90;;;;;;4986413;28;20031;-82
2021/05/30 08:47:22;;;;;;;11.15;9.35;;;15.80;99.90;;;;;;4999327;28;20050;-83
2021/05/30 08:49:49;;;;;;;15.07;9.88;;;15.90;99.90;;;;;;4978733;28;20034;-83
2021/05/30 08:52:16;;;;;;;12.65;9.73;;;15.90;99.90;;;;;;4988299;28;20498;-82
2021/05/30 08:54:42;;;;;;;10.77;8.45;;;16.10;99.90;;;;;;4988936;28;20497;-86
2021/05/30 08:57:07;;;;;;;12.00;8.75;;;16.10;99.90;;;;;;4980845;28;20065;-85
2021/05/30 08:59:35;;;;;;;13.02;8.65;;;16.20;99.90;;;;;;4981197;28;20030;-84
2021/05/30 09:02:10;;;;;;;11.32;9.07;;;16.30;99.90;;;;;;4973520;28;20420;-85
2021/05/30 09:04:42;;;;;;;11.65;8.07;;;16.40;99.90;;;;;;4995872;28;20040;-87
2021/05/30 09:07:08;;;;;;;10.88;8.90;;;16.50;99.90;;;;;;5003805;28;20034;-88
2021/05/30 09:09:48;;;;;;;9.43;7.47;;;16.60;99.90;;;;;;4990267;28;20523;-89
2021/05/30 09:12:23;;;;;;;10.52;7.97;;;16.70;99.90;;;;;;5004689;28;20036;-87
2021/05/30 09:14:52;;;;;;;8.75;6.82;;;16.70;99.90;;;;;;5005748;28;20041;-92
2021/05/30 09:17:18;;;;;;;9.50;6.75;;;16.80;99.90;;;;;;5010371;28;20105;-85
2021/05/30 09:19:49;;;;;;;8.18;6.53;;;16.80;99.90;;;;;;5006979;28;20093;-89
2021/05/30 09:22:15;;;;;;;16.83;12.13;;;16.90;99.90;;;;;;5017227;28;20045;-88
2021/05/30 09:25:02;;;;;;;13.50;10.63;;;17.10;99.90;;;;;;4967490;28;20116;-90
2021/05/30 09:27:27;;;;;;;11.25;8.70;;;17.30;99.90;;;;;;4963306;28;20043;-89
2021/05/30 09:30:16;;;;;;;10.27;7.43;;;17.50;99.90;;;;;;4979213;28;20084;-90
2021/05/30 09:32:54;;;;;;;9.15;7.10;;;18.40;99.90;;;;;;4942011;29;20047;-89
2021/05/30 09:35:24;;;;;;;9.45;6.85;;;19.70;99.90;;;;;;4958640;29;20039;-88
2021/05/30 09:38:08;;;;;;;11.30;8.48;;;20.80;99.90;;;;;;4957413;28;20396;-89
2021/05/30 09:40:49;;;;;;;10.35;7.43;;;21.80;98.30;;;;;;4976145;28;20086;-88
2021/05/30 09:43:24;;;;;;;6.38;4.90;;;22.50;96.90;;;;;;4979417;28;20046;-87
2021/05/30 09:46:00;;;;;;;7.35;4.30;;;23.20;96.60;;;;;;4966617;28;20058;-85
2021/05/30 09:48:27;;;;;;;6.70;4.18;;;24.00;96.10;;;;;;4959873;28;20102;-85
2021/05/30 09:51:06;;;;;;;7.85;5.25;;;24.50;95.60;;;;;;4961984;28;20050;-87
2021/05/30 09:54:05;;;;;;;7.72;5.30;;;24.90;94.50;;;;;;4970563;28;20042;-87
2021/05/30 09:56:44;;;;;;;6.15;4.60;;;25.20;93.80;;;;;;4961557;28;20031;-86
2021/05/30 09:59:16;;;;;;;7.22;4.32;;;25.50;93.60;;;;;;4960884;28;20071;-88
2021/05/30 10:01:48;;;;;;;6.57;4.57;;;25.90;92.80;;;;;;4960172;28;20536;-89
2021/05/30 10:04:15;;;;;;;6.03;3.97;;;26.20;92.10;;;;;;4960230;28;20119;-90
2021/05/30 10:06:42;;;;;;;6.43;5.32;;;26.40;91.40;;;;;;4960579;28;20087;-90
2021/05/30 10:09:09;;;;;;;5.30;4.40;;;26.60;90.20;;;;;;4959878;28;20027;-87
2021/05/30 10:11:36;;;;;;;5.82;4.38;;;26.60;89.20;;;;;;4977818;28;20035;-86
2021/05/30 10:14:13;;;;;;;6.70;5.22;;;26.70;87.80;;;;;;4960008;28;20129;-86
2021/05/30 10:16:40;;;;;;;6.72;4.60;;;26.80;84.90;;;;;;4959540;28;20107;-89
2021/05/30 10:19:08;;;;;;;4.18;3.45;;;26.80;83.00;;;;;;4959532;28;20101;-85
2021/05/30 10:21:34;;;;;;;5.55;3.92;;;26.90;83.00;;;;;;4968689;28;20026;-89
2021/05/30 10:24:00;;;;;;;4.00;3.28;;;27.30;82.20;;;;;;4972539;28;20138;-87
2021/05/30 10:26:26;;;;;;;5.43;3.40;;;27.50;81.10;;;;;;4995826;28;20086;-88
2021/05/30 10:29:16;;;;;;;4.80;3.30;;;27.70;80.00;;;;;;4997973;28;20469;-87
2021/05/30 10:31:45;;;;;;;5.50;3.90;;;28.10;75.40;;;;;;5003266;28;20037;-91
2021/05/30 10:34:13;;;;;;;6.15;4.35;;;28.10;75.80;;;;;;4978644;28;20042;-90
2021/05/30 10:36:43;;;;;;;6.07;3.92;;;28.20;75.60;;;;;;4989139;28;20038;-90
2021/05/30 10:39:31;;;;;;;5.72;3.67;;;28.20;75.50;;;;;;4998029;28;20033;-89
2021/05/30 10:42:11;;;;;;;4.50;3.72;;;28.50;74.90;;;;;;4983450;28;20038;-89
2021/05/30 10:44:55;;;;;;;4.45;3.33;;;28.60;72.80;;;;;;4982393;28;20395;-90
2021/05/30 10:47:47;;;;;;;5.88;2.90;;;28.70;73.50;;;;;;4997412;28;20026;-88
2021/05/30 10:50:15;;;;;;;5.00;3.85;;;29.00;71.80;;;;;;4997483;28;20160;-89
2021/05/30 10:52:43;;;;;;;5.13;3.85;;;29.10;68.30;;;;;;4982993;28;20057;-88
2021/05/30 10:55:15;;;;;;;4.45;2.60;;;29.10;68.80;;;;;;4997999;28;20042;-92
2021/05/30 10:57:46;;;;;;;4.78;2.80;;;29.20;69.10;;;;;;4998409;28;20509;-90
2021/05/30 11:00:21;;;;;;;3.17;2.17;;;29.30;68.50;;;;;;5014210;28;20447;-90
2021/05/30 11:03:05;;;;;;;2.88;2.20;;;29.40;66.80;;;;;;5015477;28;20042;-91
2021/05/30 11:05:50;;;;;;;3.45;2.30;;;29.70;65.00;;;;;;4987266;28;20037;-90
2021/05/30 11:08:31;;;;;;;3.53;2.53;;;29.90;64.50;;;;;;4995486;28;20061;-90
2021/05/30 11:11:29;;;;;;;3.72;2.40;;;30.10;64.40;;;;;;4998674;28;20049;-90
2021/05/30 11:14:09;;;;;;;3.65;2.80;;;30.10;64.60;;;;;;5000536;28;20045;-91
2021/05/30 11:16:40;;;;;;;3.10;2.30;;;30.10;64.60;;;;;;4978644;28;20066;-91
2021/05/30 11:19:09;;;;;;;3.10;2.00;;;30.10;63.20;;;;;;4986473;28;20062;-89
2021/05/30 11:21:43;;;;;;;2.78;2.15;;;30.20;62.40;;;;;;4999078;28;20060;-90
2021/05/30 11:24:15;;;;;;;2.53;1.60;;;30.20;60.30;;;;;;4984861;28;20065;-90
2021/05/30 11:27:10;;;;;;;4.17;2.20;;;30.10;59.90;;;;;;4960437;28;20038;-90
2021/05/30 11:29:36;;;;;;;3.25;1.92;;;30.30;60.80;;;;;;4979637;28;20290;-90
2021/05/30 11:32:02;;;;;;;3.33;2.33;;;30.10;60.80;;;;;;4960266;28;20035;-89
2021/05/30 11:34:33;;;;;;;3.13;2.50;;;30.20;60.60;;;;;;4959582;28;20484;-91
2021/05/30 11:37:10;;;;;;;3.95;2.72;;;30.40;60.00;;;;;;4958628;28;20150;-91
2021/05/30 11:39:43;;;;;;;3.72;2.35;;;30.30;58.50;;;;;;4975482;28;20045;-92
2021/05/30 11:42:09;;;;;;;3.08;2.08;;;30.10;58.70;;;;;;4959419;28;20030;-91
2021/05/30 11:44:35;;;;;;;2.72;2.08;;;30.10;59.00;;;;;;4979054;28;20038;-90
2021/05/30 11:47:04;;;;;;;2.97;2.10;;;30.30;58.50;;;;;;5014817;28;20065;-90
2021/05/30 11:49:32;;;;;;;3.13;2.03;;;30.50;58.10;;;;;;4998575;28;20088;-89
2021/05/30 11:52:09;;;;;;;3.80;2.20;;;30.60;57.80;;;;;;4997972;28;20036;-91
2021/05/30 11:54:49;;;;;;;3.38;2.53;;;30.50;55.30;;;;;;4997718;28;20038;-89
2021/05/30 11:57:18;;;;;;;2.58;1.80;;;30.40;54.70;;;;;;4998426;28;20435;-90
2021/05/30 11:59:56;;;;;;;2.72;1.90;;;30.50;55.90;;;;;;4996086;28;20534;-90
2021/05/30 12:02:28;;;;;;;3.92;2.30;;;30.70;57.10;;;;;;4993940;28;20088;-89
2021/05/30 12:04:59;;;;;;;3.10;1.88;;;31.00;56.00;;;;;;4997502;28;20034;-89
2021/05/30 12:07:26;;;;;;;3.20;2.17;;;31.10;55.70;;;;;;5013938;28;20034;-90
2021/05/30 12:09:58;;;;;;;2.95;2.08;;;31.00;56.50;;;;;;4997592;28;20083;-90
2021/05/30 12:12:31;;;;;;;2.88;2.13;;;31.10;56.70;;;;;;5014795;28;20072;-89
2021/05/30 12:15:17;;;;;;;3.53;2.10;;;31.20;56.20;;;;;;4997601;28;20061;-90
2021/05/30 12:17:59;;;;;;;3.22;1.88;;;31.10;56.30;;;;;;4997634;28;20041;-90
2021/05/30 12:20:33;;;;;;;2.70;2.08;;;31.20;55.60;;;;;;4994967;28;20120;-88
2021/05/30 12:23:08;;;;;;;2.60;2.08;;;31.40;55.30;;;;;;4983772;28;20141;-88
2021/05/30 12:25:34;;;;;;;2.92;1.95;;;31.40;54.20;;;;;;4986044;28;20074;-89
2021/05/30 12:28:00;;;;;;;4.15;2.00;;;31.10;53.60;;;;;;4991501;28;20486;-90
2021/05/30 12:30:26;;;;;;;3.03;2.05;;;31.10;53.80;;;;;;4978440;28;20058;-89
2021/05/30 12:32:52;;;;;;;3.58;2.17;;;31.10;53.80;;;;;;4977171;28;20571;-89
2021/05/30 12:35:45;;;;;;;3.80;1.70;;;31.20;53.70;;;;;;4977077;28;20170;-90
2021/05/30 12:38:13;;;;;;;2.42;1.55;;;31.20;53.70;;;;;;4977033;28;20034;-89
2021/05/30 12:40:39;;;;;;;2.60;1.45;;;31.20;54.50;;;;;;4954744;28;20081;-88
2021/05/30 12:43:05;;;;;;;3.63;2.20;;;31.40;54.00;;;;;;5003853;28;20042;-88
2021/05/30 12:45:31;;;;;;;2.28;1.55;;;31.60;54.30;;;;;;4994562;28;20680;-87
2021/05/30 12:47:57;;;;;;;2.17;1.42;;;31.90;53.40;;;;;;5006015;28;20034;-88